Cleveland, OH (44136)

4:32 PM EDT on May 06, 2015 (GMT -0400)
Albion Place | | Change Station
CLOSE
Current Station
Personal Weather Station
Location: Strongsville, OH
Elevation: 850 ft
Nearby Weather Stations

Elev 850 ft 41.33 °N, 81.84 °W | Updated 2 minutes ago

Partly Cloudy
Partly Cloudy
71.2 °F
Feels Like 74 °F
N
4.0
Wind Variable Wind from NE
Gusts 8.0 mph

Today
High -- | Low -- °F
--% Chance of Precip.
Yesterday
High -- | Low -- °F
Precip. -- in
6:18 AM 8:29 PM
Waning Gibbous, 92% visible
Pressure 30.22 in
Visibility 10.0 miles
Clouds Scattered Clouds 25000 ft
Heat Index 74 °F
Dew Point 61 °F
Humidity 70%
Rainfall 0.00 in
Snow Depth Not available.
UV 6 out of 12
Pollen 5.10 out of 12
Air Quality Not available.
Flu Activity Regional
METAR KCLE 061951Z COR 01009KT 10SM SCT250 21/15 A3022 RMK AO2 SLP231 T02060150

More Conditions Fewer Conditions

Pressure 30.22 in
Visibility 10.0 miles
Clouds Scattered Clouds 25000 ft
Heat Index 74 °F
Dew Point 61 °F
Humidity 70%
Rainfall 0.00 in
Snow Depth Not available.
UV 6 out of 12
Pollen 5.10 out of 12
Air Quality Not available.
Flu Activity Regional
METAR KCLE 061951Z COR 01009KT 10SM SCT250 21/15 A3022 RMK AO2 SLP231 T02060150

More Conditions Fewer Conditions

10-Day Weather Forecast

Almanac

Astronomy

May. 06, 2015 Rise Set
Actual Time
Civil Twilight
Nautical Twilight
Astronomical Twilight
Moon
Length of Visible Light
Length of Day
Tomorrow will be .
, % of the Moon is Illuminated

Today's Extremes

State Highs State Lows

Community

WunderPhotos

Upload Photos

1,819,011 photos uploaded!

WunderBlogs® & News

Nearby

Air Quality

  Air Quality AQ Index Pollutant
Not available.

Snow Depth

Station Depth Elevation

Earthquake Activity

City Distance Mag. Time & Date
Minimum magnitude displayed is 2.5.

Coastal Water Temperatures

Place Temperature

Stations

Nearby Weather Stations

Station Location Temp. Windchill Dew Point Humidity Wind Precip. Elev Updated Type